Terminal Aerodrome Forecast
Issued by NWS

Home | Current Version | Previous Version | Text Only | Print | Product List | Glossary Off
Versions: 1 2 3 4 5 6 7 8 9 10 11 12 13 14 15 16 17 18 19 20

000
FTUS43 KICT 011320 AAA
TAFCNU
TAF AMD
KCNU 011320Z 0113/0212 VRB03KT 6SM BR OVC035
      TEMPO 0113/0116 3SM -SNPL BR OVC012
     FM011700 34005KT P6SM SCT020 BKN035
     FM012300 36004KT P6SM SCT150=

USA.gov is the U.S. government's official web portal to all federal, state and local government web resources and services.